createdAt,value
2018-04-29T00:00:02.796Z,15
2018-04-29T00:00:52.564Z,15
2018-04-29T00:01:42.641Z,14.9
2018-04-29T00:02:32.963Z,14.9
2018-04-29T00:03:23.056Z,14.9
2018-04-29T00:04:13.118Z,14.8
2018-04-29T00:05:03.159Z,14.8
2018-04-29T00:05:53.229Z,14.8
2018-04-29T00:06:43.028Z,14.8
2018-04-29T00:07:33.375Z,14.7
2018-04-29T00:08:23.429Z,14.7
2018-04-29T00:09:12.932Z,14.7
2018-04-29T00:10:03.578Z,14.6
2018-04-29T00:10:53.424Z,14.6
2018-04-29T00:11:43.690Z,14.6
2018-04-29T00:12:33.479Z,14.6
2018-04-29T00:13:23.814Z,14.6
2018-04-29T00:14:13.886Z,14.5
2018-04-29T00:15:03.958Z,14.5
2018-04-29T00:15:54.001Z,14.5
2018-04-29T00:16:44.070Z,14.4
2018-04-29T00:17:33.868Z,14.4
2018-04-29T00:18:24.201Z,14.4
2018-04-29T00:19:13.989Z,14.4
2018-04-29T00:20:04.353Z,14.3
2018-04-29T00:20:54.478Z,14.3
2018-04-29T00:21:44.455Z,14.3
2018-04-29T00:22:34.524Z,14.3
2018-04-29T00:23:24.035Z,14.2
2018-04-29T00:24:14.380Z,14.2
2018-04-29T00:25:04.744Z,14.2
2018-04-29T00:25:54.520Z,14.2
2018-04-29T00:26:44.843Z,14.1
2018-04-29T00:27:34.647Z,14.1
2018-04-29T00:28:24.987Z,14.1
2018-04-29T00:29:14.773Z,14.1
2018-04-29T00:30:04.818Z,14.1
2018-04-29T00:30:55.188Z,14.1
2018-04-29T00:31:45.241Z,14
2018-04-29T00:32:35.307Z,14
2018-04-29T00:33:25.368Z,14
2018-04-29T00:34:15.415Z,14
2018-04-29T00:35:05.492Z,13.9
2018-04-29T00:35:55.570Z,13.9
2018-04-29T00:36:45.644Z,13.9
2018-04-29T00:37:35.707Z,13.9
2018-04-29T00:38:25.469Z,13.9
2018-04-29T00:39:15.809Z,13.9
2018-04-29T00:40:05.593Z,13.9
2018-04-29T00:40:55.675Z,13.8
2018-04-29T00:41:46.000Z,13.8
2018-04-29T00:42:35.519Z,13.8
2018-04-29T00:43:25.852Z,13.8
2018-04-29T00:44:16.220Z,13.8
2018-04-29T00:45:06.264Z,13.8
2018-04-29T00:45:55.773Z,13.8
2018-04-29T00:46:46.399Z,13.8
2018-04-29T00:47:36.469Z,13.8
2018-04-29T00:48:26.527Z,13.8
2018-04-29T00:49:16.580Z,13.8
2018-04-29T00:50:06.375Z,13.7
2018-04-29T00:50:56.762Z,13.7
2018-04-29T00:51:46.773Z,13.7
2018-04-29T00:52:36.564Z,13.7
2018-04-29T00:53:26.900Z,13.6
2018-04-29T00:54:17.009Z,13.6
2018-04-29T00:55:07.054Z,13.6
2018-04-29T00:55:56.825Z,13.6
2018-04-29T00:56:47.168Z,13.6
2018-04-29T00:57:37.244Z,13.6
2018-04-29T00:58:27.310Z,13.6
2018-04-29T00:59:17.360Z,13.6
2018-04-29T01:00:07.420Z,13.5
2018-04-29T01:00:57.200Z,13.5
2018-04-29T01:01:47.270Z,13.5
2018-04-29T01:02:37.641Z,13.4
2018-04-29T01:03:27.679Z,13.4
2018-04-29T01:04:17.797Z,13.4
2018-04-29T01:05:07.534Z,13.4
2018-04-29T01:05:57.947Z,13.4
2018-04-29T01:06:48.027Z,13.4
2018-04-29T01:07:38.025Z,13.4
2018-04-29T01:08:28.082Z,13.4
2018-04-29T01:09:18.127Z,13.4
2018-04-29T01:10:08.198Z,13.4
2018-04-29T01:10:58.266Z,13.4
2018-04-29T01:11:48.048Z,13.4
2018-04-29T01:12:38.111Z,13.4
2018-04-29T01:13:28.483Z,13.4
2018-04-29T01:14:18.533Z,13.4
2018-04-29T01:15:08.589Z,13.3
2018-04-29T01:15:58.369Z,13.3
2018-04-29T01:16:48.434Z,13.3
2018-04-29T01:17:38.774Z,13.3
2018-04-29T01:18:28.873Z,13.3
2018-04-29T01:19:18.647Z,13.3
2018-04-29T01:20:08.704Z,13.3
2018-04-29T01:20:59.039Z,13.3
2018-04-29T01:21:49.101Z,13.3
2018-04-29T01:22:39.178Z,13.3
2018-04-29T01:23:29.247Z,13.3
2018-04-29T01:24:19.009Z,13.2
2018-04-29T01:25:09.089Z,13.2
2018-04-29T01:25:59.144Z,13.2
2018-04-29T01:26:49.498Z,13.2
2018-04-29T01:27:39.550Z,13.2
2018-04-29T01:28:29.630Z,13.2
2018-04-29T01:29:19.687Z,13.2
2018-04-29T01:30:09.746Z,13.2
2018-04-29T01:30:59.820Z,13.1
2018-04-29T01:31:49.594Z,13.1
2018-04-29T01:32:39.950Z,13.1
2018-04-29T01:33:30.015Z,13.1
2018-04-29T01:34:20.070Z,13.1
2018-04-29T01:35:10.133Z,13.1
2018-04-29T01:35:59.934Z,13.1
2018-04-29T01:36:50.261Z,13.1
2018-04-29T01:37:40.326Z,13.1
2018-04-29T01:38:30.394Z,13.1
2018-04-29T01:39:20.457Z,13.1
2018-04-29T01:40:10.541Z,13.1
2018-04-29T01:41:00.313Z,13.1
2018-04-29T01:41:50.367Z,13
2018-04-29T01:42:40.448Z,13
2018-04-29T01:43:30.498Z,13
2018-04-29T01:44:20.865Z,13
2018-04-29T01:45:10.645Z,13
2018-04-29T01:46:00.965Z,12.9
2018-04-29T01:46:50.767Z,12.9
2018-04-29T01:47:41.094Z,12.9
2018-04-29T01:48:31.171Z,12.9
2018-04-29T01:49:21.236Z,12.9
2018-04-29T01:50:11.292Z,12.9
2018-04-29T01:51:01.378Z,12.9
2018-04-29T01:51:51.149Z,12.9
2018-04-29T01:52:41.487Z,12.9
2018-04-29T01:53:31.283Z,12.9
2018-04-29T01:54:21.608Z,12.9
2018-04-29T01:55:11.416Z,12.9
2018-04-29T01:56:01.456Z,12.9
2018-04-29T01:56:51.817Z,12.9
2018-04-29T01:57:41.893Z,12.9
2018-04-29T01:58:31.387Z,12.9
2018-04-29T01:59:22.010Z,12.8
2018-04-29T02:00:12.100Z,12.8
2018-04-29T02:01:02.137Z,12.8
2018-04-29T02:01:52.208Z,12.8
2018-04-29T02:02:41.997Z,12.8
2018-04-29T02:03:32.342Z,12.8
2018-04-29T02:04:22.410Z,12.8
2018-04-29T02:05:12.480Z,12.8
2018-04-29T02:06:02.537Z,12.8
2018-04-29T02:06:52.585Z,12.8
2018-04-29T02:07:42.654Z,12.8
2018-04-29T02:08:32.734Z,12.8
2018-04-29T02:09:22.793Z,12.7
2018-04-29T02:10:12.846Z,12.7
2018-04-29T02:11:02.935Z,12.7
2018-04-29T02:11:52.717Z,12.7
2018-04-29T02:12:43.039Z,12.7
2018-04-29T02:13:32.565Z,12.7
2018-04-29T02:14:23.179Z,12.6
2018-04-29T02:15:13.273Z,12.6
2018-04-29T02:16:03.316Z,12.6
2018-04-29T02:16:53.369Z,12.6
2018-04-29T02:17:43.168Z,12.6
2018-04-29T02:18:33.517Z,12.6
2018-04-29T02:19:23.575Z,12.6
2018-04-29T02:20:13.644Z,12.6
2018-04-29T02:21:03.412Z,12.6
2018-04-29T02:21:53.758Z,12.6
2018-04-29T02:22:43.276Z,12.6
2018-04-29T02:23:33.883Z,12.5
2018-04-29T02:24:23.945Z,12.5
2018-04-29T02:25:14.028Z,12.5
2018-04-29T02:26:03.808Z,12.4
2018-04-29T02:26:54.147Z,12.4
2018-04-29T02:27:43.668Z,12.4
2018-04-29T02:28:34.281Z,12.4
2018-04-29T02:29:24.077Z,12.3
2018-04-29T02:30:14.155Z,12.3
2018-04-29T02:31:04.497Z,12.3
2018-04-29T02:31:54.543Z,12.3
2018-04-29T02:32:44.614Z,12.3
2018-04-29T02:33:34.706Z,12.2
2018-04-29T02:34:24.460Z,12.2
2018-04-29T02:35:14.795Z,12.2
2018-04-29T02:36:04.867Z,12.2
2018-04-29T02:36:54.930Z,12.2
2018-04-29T02:37:44.985Z,12.2
2018-04-29T02:38:35.146Z,12.1
2018-04-29T02:39:25.130Z,12.1
2018-04-29T02:40:15.197Z,12.2
2018-04-29T02:41:05.276Z,12.1
2018-04-29T02:41:55.332Z,12.1
2018-04-29T02:42:45.110Z,12.1
2018-04-29T02:43:35.440Z,12.1
2018-04-29T02:44:25.527Z,12.1
2018-04-29T02:45:15.302Z,12.1
2018-04-29T02:46:05.440Z,12.1
2018-04-29T02:46:55.429Z,12.1
2018-04-29T02:47:45.779Z,12
2018-04-29T02:48:35.832Z,11.9
2018-04-29T02:49:25.622Z,11.9
2018-04-29T02:50:15.980Z,11.9
2018-04-29T02:51:06.017Z,11.9
2018-04-29T02:51:56.099Z,11.9
2018-04-29T02:52:45.928Z,11.9
2018-04-29T02:53:36.250Z,11.9
2018-04-29T02:54:26.313Z,11.9
2018-04-29T02:55:16.359Z,11.9
2018-04-29T02:56:06.150Z,11.9
2018-04-29T02:56:56.526Z,11.8
2018-04-29T02:57:46.640Z,11.8
2018-04-29T02:58:36.610Z,11.8
2018-04-29T02:59:26.694Z,11.8
2018-04-29T03:00:16.458Z,11.8
2018-04-29T03:01:06.830Z,11.8
2018-04-29T03:01:56.900Z,11.7
2018-04-29T03:02:46.987Z,11.7
2018-04-29T03:03:37.021Z,11.6
2018-04-29T03:04:27.073Z,11.6
2018-04-29T03:05:16.850Z,11.6
2018-04-29T03:06:07.224Z,11.6
2018-04-29T03:06:57.277Z,11.6
2018-04-29T03:07:47.324Z,11.5
2018-04-29T03:08:37.390Z,11.5
2018-04-29T03:09:27.459Z,11.4
2018-04-29T03:10:17.532Z,11.4
2018-04-29T03:11:07.592Z,11.4
2018-04-29T03:11:57.665Z,11.4
2018-04-29T03:12:47.730Z,11.4
2018-04-29T03:13:37.775Z,11.3
2018-04-29T03:14:27.878Z,11.3
2018-04-29T03:15:17.978Z,11.3
2018-04-29T03:16:07.969Z,11.3
2018-04-29T03:16:57.760Z,11.3
2018-04-29T03:17:48.110Z,11.2
2018-04-29T03:18:38.176Z,11.2
2018-04-29T03:19:28.229Z,11.2
2018-04-29T03:20:18.316Z,11.1
2018-04-29T03:21:08.346Z,11.1
2018-04-29T03:21:58.430Z,11.1
2018-04-29T03:22:48.492Z,11.1
2018-04-29T03:23:38.560Z,11.1
2018-04-29T03:24:28.627Z,11
2018-04-29T03:25:18.510Z,11
2018-04-29T03:26:08.770Z,11
2018-04-29T03:26:58.521Z,10.9
2018-04-29T03:27:48.868Z,10.9
2018-04-29T03:28:38.943Z,10.9
2018-04-29T03:29:29.014Z,10.9
2018-04-29T03:30:19.130Z,10.9
2018-04-29T03:31:09.144Z,10.9
2018-04-29T03:31:58.928Z,10.8
2018-04-29T03:32:49.261Z,10.8
2018-04-29T03:33:39.326Z,10.8
2018-04-29T03:34:29.388Z,10.8
2018-04-29T03:35:19.459Z,10.8
2018-04-29T03:36:09.522Z,10.8
2018-04-29T03:36:59.649Z,10.8
2018-04-29T03:37:49.667Z,10.8
2018-04-29T03:38:39.714Z,10.8
2018-04-29T03:39:29.774Z,10.8
2018-04-29T03:40:19.846Z,10.7
2018-04-29T03:41:09.905Z,10.8
2018-04-29T03:41:59.977Z,10.8
2018-04-29T03:42:50.064Z,10.7
2018-04-29T03:43:40.123Z,10.7
2018-04-29T03:44:30.161Z,10.7
2018-04-29T03:45:19.947Z,10.7
2018-04-29T03:46:10.328Z,10.6
2018-04-29T03:47:00.364Z,10.7
2018-04-29T03:47:50.507Z,10.7
2018-04-29T03:48:40.499Z,10.7
2018-04-29T03:49:30.579Z,10.6
2018-04-29T03:50:20.358Z,10.6
2018-04-29T03:51:10.698Z,10.7
2018-04-29T03:52:00.745Z,10.7
2018-04-29T03:52:50.858Z,10.6
2018-04-29T03:53:40.883Z,10.6
2018-04-29T03:54:30.943Z,10.6
2018-04-29T03:55:21.007Z,10.6
2018-04-29T03:56:11.067Z,10.6
2018-04-29T03:57:00.874Z,10.6
2018-04-29T03:57:51.202Z,10.6
2018-04-29T03:58:41.346Z,10.6
2018-04-29T03:59:31.343Z,10.7
2018-04-29T04:00:21.399Z,10.7
2018-04-29T04:01:11.458Z,10.7
2018-04-29T04:02:01.539Z,10.7
2018-04-29T04:02:51.426Z,10.7
2018-04-29T04:03:41.671Z,10.8
2018-04-29T04:04:31.760Z,10.8
2018-04-29T04:05:21.513Z,10.8
2018-04-29T04:06:11.837Z,10.8
2018-04-29T04:07:01.910Z,10.8
2018-04-29T04:07:51.689Z,10.8
2018-04-29T04:08:41.757Z,10.8
2018-04-29T04:09:32.102Z,10.8
2018-04-29T04:10:22.181Z,10.9
2018-04-29T04:11:12.238Z,10.9
2018-04-29T04:12:02.297Z,10.9
2018-04-29T04:12:52.362Z,10.9
2018-04-29T04:13:42.442Z,10.9
2018-04-29T04:14:32.481Z,10.9
2018-04-29T04:15:22.560Z,10.9
2018-04-29T04:16:12.640Z,10.9
2018-04-29T04:17:02.684Z,10.9
2018-04-29T04:17:52.484Z,11
2018-04-29T04:18:42.829Z,11
2018-04-29T04:19:32.620Z,11.1
2018-04-29T04:20:22.971Z,11.1
2018-04-29T04:21:12.746Z,11.1
2018-04-29T04:22:03.101Z,11.1
2018-04-29T04:22:53.144Z,11.1
2018-04-29T04:23:43.380Z,11.1
2018-04-29T04:24:33.317Z,11.1
2018-04-29T04:25:23.336Z,11.2
2018-04-29T04:26:13.404Z,11.2
2018-04-29T04:27:03.485Z,11.3
2018-04-29T04:27:53.539Z,11.3
2018-04-29T04:28:43.608Z,11.3
2018-04-29T04:29:33.683Z,11.3
2018-04-29T04:30:23.187Z,11.3
2018-04-29T04:31:13.863Z,11.4
2018-04-29T04:32:03.870Z,11.4
2018-04-29T04:32:53.926Z,11.4
2018-04-29T04:33:43.731Z,11.4
2018-04-29T04:34:34.048Z,11.5
2018-04-29T04:35:24.116Z,11.6
2018-04-29T04:36:14.174Z,11.6
2018-04-29T04:37:03.675Z,11.6
2018-04-29T04:37:54.308Z,11.6
2018-04-29T04:38:44.375Z,11.7
2018-04-29T04:39:34.453Z,11.8
2018-04-29T04:40:24.222Z,11.8
2018-04-29T04:41:14.279Z,11.9
2018-04-29T04:42:04.633Z,12.1
2018-04-29T04:42:54.418Z,12.1
2018-04-29T04:43:44.757Z,12.3
2018-04-29T04:44:34.823Z,12.4
2018-04-29T04:45:24.905Z,12.6
2018-04-29T04:46:14.970Z,12.7
2018-04-29T04:47:05.022Z,12.9
2018-04-29T04:47:54.820Z,13
2018-04-29T04:49:21.505Z,13.2
2018-04-29T04:49:35.230Z,13.4
2018-04-29T04:50:25.016Z,13.5
2018-04-29T04:51:15.351Z,13.7
2018-04-29T04:52:05.408Z,13.9
2018-04-29T04:52:55.195Z,14.1
2018-04-29T04:53:45.535Z,14.3
2018-04-29T04:54:35.609Z,14.4
2018-04-29T04:55:25.672Z,14.6
2018-04-29T04:56:15.748Z,14.8
2018-04-29T04:57:05.812Z,15
2018-04-29T04:57:55.877Z,15.2
2018-04-29T04:58:45.941Z,15.4
2018-04-29T04:59:35.998Z,15.6
2018-04-29T05:00:25.793Z,15.8
2018-04-29T05:01:15.583Z,16
2018-04-29T05:02:06.195Z,16.2
2018-04-29T05:02:55.980Z,16.4
2018-04-29T05:03:46.321Z,16.6
2018-04-29T05:04:36.392Z,16.9
2018-04-29T05:05:26.446Z,17.1
2018-04-29T05:06:16.517Z,17.3
2018-04-29T05:07:06.592Z,17.6
2018-04-29T05:07:56.370Z,17.8
2018-04-29T05:08:46.707Z,18
2018-04-29T05:09:36.504Z,18.3
2018-04-29T05:10:26.854Z,18.5
2018-04-29T05:11:16.694Z,18.8
2018-04-29T05:12:06.969Z,19
2018-04-29T05:12:57.025Z,19.3
2018-04-29T05:13:47.460Z,19.5
2018-04-29T05:14:37.175Z,19.8
2018-04-29T05:15:27.238Z,20
2018-04-29T05:16:17.311Z,20.3
2018-04-29T05:17:07.352Z,20.6
2018-04-29T05:17:57.131Z,20.8
2018-04-29T05:19:37.552Z,21.4
2018-04-29T05:20:27.608Z,21.7
2018-04-29T05:21:17.683Z,21.9
2018-04-29T05:22:07.935Z,22.3
2018-04-29T05:22:57.811Z,22.5
2018-04-29T05:23:47.864Z,22.8
2018-04-29T05:24:37.927Z,23.1
2018-04-29T05:25:27.713Z,23.4
2018-04-29T05:26:17.794Z,23.8
2018-04-29T05:27:08.120Z,24
2018-04-29T05:27:57.908Z,24.3
2018-04-29T05:28:48.269Z,24.6
2018-04-29T05:29:38.307Z,24.9
2018-04-29T05:30:28.380Z,25.2
2018-04-29T05:31:18.448Z,25.5
2018-04-29T05:32:08.224Z,25.8
2018-04-29T05:32:58.566Z,26.1
2018-04-29T05:33:48.070Z,26.4
2018-04-29T05:34:38.422Z,26.7
2018-04-29T05:35:29.141Z,27
2018-04-29T05:36:18.828Z,27.3
2018-04-29T05:37:08.896Z,27.6
2018-04-29T05:37:58.980Z,27.9
2018-04-29T05:38:49.021Z,28.3
2018-04-29T05:39:38.806Z,28.5
2018-04-29T05:40:29.158Z,28.8
2018-04-29T05:41:19.229Z,29.2
2018-04-29T05:42:09.280Z,29.5
2018-04-29T05:42:59.346Z,29.9
2018-04-29T05:43:49.421Z,30.2
2018-04-29T05:44:39.486Z,30.6
2018-04-29T05:45:29.528Z,30.9
2018-04-29T05:46:19.611Z,31.3
2018-04-29T05:47:09.666Z,31.5
2018-04-29T05:47:59.457Z,31.8
2018-04-29T05:48:49.796Z,32.1
2018-04-29T05:49:39.863Z,32.4
2018-04-29T05:50:29.950Z,32.8
2018-04-29T05:51:19.996Z,33.2
2018-04-29T05:52:09.797Z,33.6
2018-04-29T05:53:00.135Z,33.9
2018-04-29T05:53:49.915Z,34.3
2018-04-29T05:54:39.980Z,34.7
2018-04-29T05:55:30.041Z,35.1
2018-04-29T05:56:20.375Z,35.5
2018-04-29T05:57:10.462Z,35.9
2018-04-29T05:58:00.525Z,36.3
2018-04-29T05:58:50.300Z,36.6
2018-04-29T05:59:40.652Z,36.9
2018-04-29T06:00:31.027Z,37.3
2018-04-29T06:01:20.784Z,37.6
2018-04-29T06:02:10.830Z,38
2018-04-29T06:03:00.622Z,38.4
2018-04-29T06:03:50.983Z,38.8
2018-04-29T06:04:41.027Z,39.2
2018-04-29T06:05:31.102Z,39.6
2018-04-29T06:06:21.210Z,39.9
2018-04-29T06:07:11.233Z,40.3
2018-04-29T06:08:01.283Z,40.6
2018-04-29T06:08:51.343Z,40.9
2018-04-29T06:09:41.416Z,41.2
2018-04-29T06:10:31.214Z,41.6
2018-04-29T06:11:21.268Z,41.9
2018-04-29T06:12:11.345Z,42.2
2018-04-29T06:13:01.671Z,42.6
2018-04-29T06:13:51.787Z,43.1
2018-04-29T06:14:41.793Z,43.6
2018-04-29T06:15:31.888Z,44
2018-04-29T06:16:21.939Z,44.6
2018-04-29T06:17:11.995Z,45.1
2018-04-29T06:18:02.064Z,45.5
2018-04-29T06:18:51.857Z,45.9
2018-04-29T06:19:41.953Z,46.4
2018-04-29T06:20:32.416Z,46.8
2018-04-29T06:21:22.319Z,47.2
2018-04-29T06:22:12.389Z,47.6
2018-04-29T06:23:02.176Z,48
2018-04-29T06:23:52.532Z,48.4
2018-04-29T06:24:42.570Z,48.8
2018-04-29T06:25:32.651Z,49
2018-04-29T06:26:22.713Z,49.3
2018-04-29T06:27:12.773Z,49.6
2018-04-29T06:28:02.583Z,49.9
2018-04-29T06:28:52.911Z,50.3
2018-04-29T06:29:42.968Z,85
2018-04-29T06:30:33.083Z,51.8
2018-04-29T06:31:23.091Z,52.9
2018-04-29T06:32:13.177Z,52.2
2018-04-29T06:33:02.940Z,50.9
2018-04-29T06:33:53.008Z,49.4
2018-04-29T06:34:43.358Z,47.9
2018-04-29T06:35:33.445Z,47.1
2018-04-29T06:36:23.211Z,46.6
2018-04-29T06:37:13.544Z,46.3
2018-04-29T06:38:03.338Z,45.9
2018-04-29T06:38:53.892Z,45.8
2018-04-29T06:39:43.742Z,45.8
2018-04-29T06:40:33.828Z,46
2018-04-29T06:41:23.595Z,46.4
2018-04-29T06:42:13.980Z,46.9
2018-04-29T06:43:04.003Z,47.4
2018-04-29T06:43:54.065Z,47.9
2018-04-29T06:44:44.163Z,48.4
2018-04-29T06:45:34.205Z,49.1
2018-04-29T06:46:23.996Z,49.6
2018-04-29T06:47:14.392Z,50.3
2018-04-29T06:48:03.928Z,50.8
2018-04-29T06:48:54.489Z,51.8
2018-04-29T06:49:44.544Z,53.3
2018-04-29T06:50:34.611Z,52.7
2018-04-29T06:51:24.192Z,51
2018-04-29T06:52:14.475Z,49.7
2018-04-29T06:53:04.793Z,48.3
2018-04-29T06:53:54.855Z,47.3
2018-04-29T06:54:44.931Z,46.7
2018-04-29T06:55:34.994Z,46.4
2018-04-29T06:56:24.777Z,46.4
2018-04-29T06:57:15.139Z,46.9
2018-04-29T06:58:05.201Z,47.5
2018-04-29T06:58:55.015Z,48.2
2018-04-29T06:59:45.051Z,48.9
2018-04-29T07:00:35.114Z,49.6
2018-04-29T07:01:25.186Z,50.3
2018-04-29T07:02:15.518Z,51.4
2018-04-29T07:03:05.591Z,53.6
2018-04-29T07:03:55.087Z,54.4
2018-04-29T07:04:45.463Z,53.9
2018-04-29T07:05:35.801Z,53.6
2018-04-29T07:06:25.873Z,52.8
2018-04-29T07:07:15.919Z,51.8
2018-04-29T07:08:06.152Z,50.9
2018-04-29T07:08:55.771Z,50.1
2018-04-29T07:09:45.833Z,49.4
2018-04-29T07:10:36.183Z,48.8
2018-04-29T07:11:26.237Z,48.4
2018-04-29T07:12:16.026Z,48.6
2018-04-29T07:13:06.379Z,49.1
2018-04-29T07:13:56.459Z,50
2018-04-29T07:14:46.577Z,51.3
2018-04-29T07:15:36.577Z,53.8
2018-04-29T07:16:26.641Z,54.9
2018-04-29T07:17:16.715Z,54.9
2018-04-29T07:18:06.791Z,55.1
2018-04-29T07:18:56.573Z,54.6
2018-04-29T07:19:46.903Z,53.6
2018-04-29T07:20:36.972Z,52.6
2018-04-29T07:21:27.043Z,51.8
2018-04-29T07:22:17.102Z,51.5
2018-04-29T07:23:07.172Z,51.6
2018-04-29T07:23:57.252Z,52.1
2018-04-29T07:24:47.322Z,52.4
2018-04-29T07:25:37.367Z,52.8
2018-04-29T07:26:27.152Z,52.9
2018-04-29T07:27:17.495Z,53.1
2018-04-29T07:28:07.579Z,52.9
2018-04-29T07:28:57.625Z,52.6
2018-04-29T07:30:37.484Z,52.3
2018-04-29T07:31:27.841Z,52.2
2018-04-29T07:32:17.936Z,52.2
2018-04-29T07:33:07.974Z,52.1
2018-04-29T07:33:58.026Z,52.1
2018-04-29T07:34:48.092Z,52.2
2018-04-29T07:35:38.148Z,52.3
2018-04-29T07:37:18.283Z,52.6
2018-04-29T07:38:08.382Z,52.8
2018-04-29T07:38:58.430Z,52.9
2018-04-29T07:39:48.317Z,53.1
2018-04-29T07:40:38.577Z,53.3
2018-04-29T07:41:28.627Z,53.5
2018-04-29T07:42:18.404Z,53.6
2018-04-29T07:43:08.758Z,53.8
2018-04-29T07:43:58.552Z,53.9
2018-04-29T07:44:48.877Z,54.1
2018-04-29T07:45:38.672Z,54.2
2018-04-29T07:46:29.444Z,54.4
2018-04-29T07:47:18.532Z,54.6
2018-04-29T07:48:09.152Z,54.7
2018-04-29T07:48:59.232Z,54.8
2018-04-29T07:49:49.297Z,54.9
2018-04-29T07:50:39.361Z,55
2018-04-29T07:51:29.415Z,55.2
2018-04-29T07:52:19.445Z,55.4
2018-04-29T07:53:09.538Z,55.5
2018-04-29T07:53:59.323Z,55.6
2018-04-29T07:54:49.413Z,55.7
2018-04-29T07:55:39.758Z,55.7
2018-04-29T07:56:29.821Z,55.6
2018-04-29T07:57:19.873Z,55.7
2018-04-29T07:58:09.938Z,55.8
2018-04-29T07:59:00.014Z,55.9
2018-04-29T07:59:50.085Z,56.1
2018-04-29T08:00:40.257Z,56.4
2018-04-29T08:01:30.206Z,56.6
2018-04-29T08:02:20.269Z,56.7
2018-04-29T08:03:09.783Z,56.8
2018-04-29T08:04:00.123Z,56.8
2018-04-29T08:04:50.211Z,56.8
2018-04-29T08:05:40.535Z,56.8
2018-04-29T08:06:30.326Z,56.8
2018-04-29T08:07:20.668Z,56.7
2018-04-29T08:08:10.755Z,56.6
2018-04-29T08:09:00.798Z,56.6
2018-04-29T08:09:50.864Z,56.6
2018-04-29T08:10:40.924Z,56.7
2018-04-29T08:11:30.998Z,56.8
2018-04-29T08:12:21.060Z,56.8
2018-04-29T08:13:11.123Z,56.9
2018-04-29T08:14:01.259Z,57
2018-04-29T08:14:50.973Z,57.1
2018-04-29T08:15:41.508Z,57.3
2018-04-29T08:16:31.405Z,57.5
2018-04-29T08:18:11.230Z,57.9
2018-04-29T08:19:01.598Z,58.1
2018-04-29T08:19:51.371Z,58.3
2018-04-29T08:20:41.428Z,58.4
2018-04-29T08:22:21.859Z,58.6
2018-04-29T08:25:41.546Z,58.6
2018-04-29T08:26:32.187Z,58.7
2018-04-29T08:27:22.249Z,58.9
2018-04-29T08:28:12.308Z,59.1
2018-04-29T08:29:02.380Z,59.3
2018-04-29T08:29:52.435Z,59.3
2018-04-29T08:30:42.503Z,59.4
2018-04-29T08:31:32.568Z,59.5
2018-04-29T08:32:22.645Z,59.6
2018-04-29T08:33:12.710Z,59.6
2018-04-29T08:34:02.768Z,59.7
2018-04-29T08:34:52.832Z,59.9
2018-04-29T08:35:42.906Z,60.1
2018-04-29T08:36:32.969Z,60.3
2018-04-29T08:37:23.049Z,60.4
2018-04-29T08:38:13.124Z,60.5
2018-04-29T08:39:03.176Z,60.5
2018-04-29T08:39:52.949Z,60.4
2018-04-29T08:40:43.044Z,60.4
2018-04-29T08:41:33.376Z,60.4
2018-04-29T08:42:22.879Z,60.4
2018-04-29T08:43:13.780Z,60.4
2018-04-29T08:44:03.560Z,60.3
2018-04-29T08:44:53.341Z,60.3
2018-04-29T08:45:43.410Z,60.4
2018-04-29T08:46:33.754Z,60.4
2018-04-29T08:47:23.826Z,60.5
2018-04-29T08:48:13.890Z,60.6
2018-04-29T08:49:03.982Z,60.6
2018-04-29T08:49:54.034Z,60.7
2018-04-29T08:50:44.080Z,60.8
2018-04-29T08:51:34.158Z,60.9
2018-04-29T08:52:24.224Z,61.1
2018-04-29T08:53:14.298Z,61.2
2018-04-29T08:54:04.356Z,61.3
2018-04-29T08:54:54.688Z,61.4
2018-04-29T08:55:44.490Z,61.5
2018-04-29T08:56:34.563Z,61.4
2018-04-29T08:57:24.646Z,61.4
2018-04-29T08:58:14.211Z,61.3
2018-04-29T08:59:04.465Z,61.2
2018-04-29T08:59:54.816Z,61.1
2018-04-29T09:00:44.873Z,61
2018-04-29T09:01:34.945Z,60.9
2018-04-29T09:02:24.726Z,60.9
2018-04-29T09:03:15.083Z,60.9
2018-04-29T09:04:05.152Z,61.1
2018-04-29T09:04:54.954Z,61.1
2018-04-29T09:05:45.027Z,61.3
2018-04-29T09:06:35.093Z,61.3
2018-04-29T09:07:25.418Z,61.4
2018-04-29T09:08:15.494Z,61.4
2018-04-29T09:09:05.561Z,61.4
2018-04-29T09:09:55.339Z,61.3
2018-04-29T09:10:45.690Z,61.3
2018-04-29T09:11:35.753Z,61.1
2018-04-29T09:12:25.845Z,60.9
2018-04-29T09:13:15.877Z,60.7
2018-04-29T09:14:05.962Z,60.5
2018-04-29T09:14:56.010Z,60.5
2018-04-29T09:15:46.072Z,60.6
2018-04-29T09:16:35.883Z,60.7
2018-04-29T09:17:26.216Z,60.8
2018-04-29T09:18:16.279Z,60.8
2018-04-29T09:19:06.335Z,60.8
2018-04-29T09:19:56.421Z,60.7
2018-04-29T09:20:46.490Z,60.6
2018-04-29T09:21:36.543Z,60.6
2018-04-29T09:22:26.617Z,60.5
2018-04-29T09:23:16.675Z,60.5
2018-04-29T09:24:06.735Z,60.5
2018-04-29T09:24:56.807Z,60.6
2018-04-29T09:25:46.871Z,60.7
2018-04-29T09:26:36.940Z,60.9
2018-04-29T09:27:27.000Z,61.1
2018-04-29T09:28:17.148Z,61.2
2018-04-29T09:29:07.126Z,61.2
2018-04-29T09:29:57.206Z,61.1
2018-04-29T09:30:46.667Z,61
2018-04-29T09:31:37.328Z,61
2018-04-29T09:32:27.391Z,61
2018-04-29T09:33:17.459Z,61
2018-04-29T09:34:07.532Z,60.9
2018-04-29T09:34:57.611Z,60.9
2018-04-29T09:35:47.686Z,60.8
2018-04-29T09:36:37.731Z,60.8
2018-04-29T09:37:27.806Z,60.8
2018-04-29T09:38:17.869Z,60.8
2018-04-29T09:39:07.947Z,60.8
2018-04-29T09:39:57.711Z,60.9
2018-04-29T09:40:48.071Z,60.9
2018-04-29T09:41:38.127Z,61.1
2018-04-29T09:42:28.214Z,61.1
2018-04-29T09:43:18.640Z,61.2
2018-04-29T09:44:08.330Z,61.3
2018-04-29T09:44:58.113Z,61.4
2018-04-29T09:45:48.178Z,61.5
2018-04-29T09:46:38.530Z,61.4
2018-04-29T09:47:28.580Z,61.5
2018-04-29T09:48:18.647Z,61.5
2018-04-29T09:49:08.176Z,61.5
2018-04-29T09:49:58.781Z,61.6
2018-04-29T09:50:48.566Z,61.8
2018-04-29T09:51:38.929Z,61.9
2018-04-29T09:52:29.020Z,62.1
2018-04-29T09:53:19.050Z,62.1
2018-04-29T09:54:09.132Z,62.2
2018-04-29T09:54:58.903Z,62.2
2018-04-29T09:55:49.263Z,62.2
2018-04-29T09:56:39.317Z,62.2
2018-04-29T09:57:29.102Z,62.2
2018-04-29T09:58:19.495Z,62.1
2018-04-29T09:59:09.223Z,62.2
2018-04-29T09:59:59.326Z,62.2
2018-04-29T10:00:49.649Z,62.3
2018-04-29T10:01:39.734Z,62.4
2018-04-29T10:02:29.794Z,62.6
2018-04-29T10:03:19.848Z,62.8
2018-04-29T10:04:09.634Z,62.9
2018-04-29T10:04:59.434Z,63
2018-04-29T10:05:50.040Z,63.1
2018-04-29T10:06:40.131Z,63.1
2018-04-29T10:07:30.190Z,63.1
2018-04-29T10:08:20.239Z,63.1
2018-04-29T10:09:10.342Z,63.1
2018-04-29T10:10:00.390Z,63
2018-04-29T10:10:50.164Z,62.9
2018-04-29T10:11:40.518Z,62.8
2018-04-29T10:12:30.596Z,62.8
2018-04-29T10:13:20.643Z,62.7
2018-04-29T10:14:10.448Z,62.8
2018-04-29T10:15:00.776Z,62.9
2018-04-29T10:15:50.854Z,63
2018-04-29T10:16:40.635Z,63.1
2018-04-29T10:17:30.981Z,63.2
2018-04-29T10:18:21.069Z,63.3
2018-04-29T10:19:11.113Z,63.3
2018-04-29T10:20:01.188Z,63.3
2018-04-29T10:20:50.678Z,63.3
2018-04-29T10:21:41.321Z,63.1
2018-04-29T10:22:31.376Z,63.1
2018-04-29T10:23:21.458Z,63.1
2018-04-29T10:24:11.230Z,63.1
2018-04-29T10:25:01.575Z,63.3
2018-04-29T10:25:51.648Z,63.4
2018-04-29T10:26:41.700Z,63.6
2018-04-29T10:27:31.783Z,63.8
2018-04-29T10:28:21.838Z,63.9
2018-04-29T10:29:11.930Z,64
2018-04-29T10:30:01.981Z,64.1
2018-04-29T10:30:52.041Z,64.2
2018-04-29T10:31:41.832Z,64.3
2018-04-29T10:32:31.979Z,64.4
2018-04-29T10:33:22.227Z,64.6
2018-04-29T10:34:12.375Z,64.6
2018-04-29T10:35:02.092Z,64.5
2018-04-29T10:35:52.165Z,64.4
2018-04-29T10:36:42.498Z,64.4
2018-04-29T10:37:32.564Z,64.3
2018-04-29T10:38:22.337Z,64.1
2018-04-29T10:39:12.441Z,64
2018-04-29T10:40:02.477Z,63.9
2018-04-29T10:40:52.546Z,63.8
2018-04-29T10:41:42.622Z,63.8
2018-04-29T10:42:32.951Z,63.7
2018-04-29T10:43:23.052Z,63.6
2018-04-29T10:44:13.165Z,63.6
2018-04-29T10:45:03.151Z,63.8
2018-04-29T10:45:53.038Z,63.9
2018-04-29T10:46:43.277Z,64.1
2018-04-29T10:47:33.352Z,64.1
2018-04-29T10:48:23.414Z,64.1
2018-04-29T10:49:13.506Z,64.1
2018-04-29T10:50:03.560Z,64.1
2018-04-29T10:50:53.622Z,64
2018-04-29T10:51:43.685Z,63.9
2018-04-29T10:52:34.026Z,63.8
2018-04-29T10:53:23.265Z,63.7
2018-04-29T10:54:13.891Z,63.6
2018-04-29T10:55:03.960Z,63.6
2018-04-29T10:55:54.025Z,63.5
2018-04-29T10:56:43.922Z,63.6
2018-04-29T10:57:34.144Z,63.6
2018-04-29T10:58:24.219Z,63.6
2018-04-29T10:59:14.286Z,63.6
2018-04-29T11:00:04.365Z,63.6
2018-04-29T11:00:53.851Z,63.4
2018-04-29T11:01:44.211Z,63.3
2018-04-29T11:02:34.555Z,63.3
2018-04-29T11:03:23.860Z,63.2
2018-04-29T11:04:14.830Z,63.1
2018-04-29T11:05:04.463Z,63.1
2018-04-29T11:05:54.831Z,63.1
2018-04-29T11:06:44.875Z,63.1
2018-04-29T11:07:34.680Z,63.1
2018-04-29T11:08:24.731Z,63.2
2018-04-29T11:09:15.082Z,63.3
2018-04-29T11:10:05.161Z,63.3
2018-04-29T11:10:55.205Z,63.1
2018-04-29T11:11:45.459Z,63.1
2018-04-29T11:12:34.804Z,63.1
2018-04-29T11:13:25.417Z,63.1
2018-04-29T11:14:15.484Z,63.1
2018-04-29T11:15:05.557Z,63.1